createdAt,value
2019-06-15T00:05:32.731Z,99113.09
2019-06-15T00:08:05.085Z,99116.36
2019-06-15T00:10:37.285Z,99113.06
2019-06-15T00:13:09.022Z,99124.77
2019-06-15T00:15:39.988Z,99130.25
2019-06-15T00:18:12.263Z,99139.84
2019-06-15T00:20:42.992Z,99140.88
2019-06-15T00:23:13.953Z,99137.30
2019-06-15T00:25:44.866Z,99138.86
2019-06-15T00:28:18.777Z,99127.75
2019-06-15T00:30:49.622Z,99122.00
2019-06-15T00:33:20.616Z,99107.34
2019-06-15T00:36:10.249Z,99107.91
2019-06-15T00:38:41.104Z,99114.71
2019-06-15T00:41:11.965Z,99107.34
2019-06-15T00:43:42.768Z,99115.20
2019-06-15T00:46:13.723Z,99119.19
2019-06-15T00:48:44.573Z,99110.48
2019-06-15T00:51:14.630Z,99112.94
2019-06-15T00:54:04.631Z,99100.10
2019-06-15T00:56:35.487Z,99100.10
2019-06-15T00:59:25.985Z,99115.41
2019-06-15T01:01:57.819Z,99106.71
2019-06-15T01:04:28.710Z,99097.81
2019-06-15T01:10:12.817Z,99074.94
2019-06-15T01:12:44.195Z,99074.94
2019-06-15T01:15:26.542Z,99070.61
2019-06-15T01:21:32.097Z,99056.94
2019-06-15T01:25:05.116Z,99056.90
2019-06-15T01:30:43.468Z,99036.20
2019-06-15T01:34:21.129Z,99038.63
2019-06-15T01:36:36.343Z,99024.20
2019-06-15T01:39:13.735Z,99014.17
2019-06-15T01:41:59.512Z,99013.58
2019-06-15T01:45:09.671Z,99003.29
2019-06-15T01:50:45.134Z,99009.43
2019-06-15T01:53:20.063Z,98996.98
2019-06-15T01:55:53.430Z,98997.28
2019-06-15T01:58:26.539Z,99004.93
2019-06-15T02:00:58.426Z,99014.97
2019-06-15T02:03:32.448Z,99018.09
2019-06-15T02:08:47.316Z,99015.42
2019-06-15T02:14:08.966Z,99022.83
2019-06-15T02:16:43.631Z,99023.29
2019-06-15T02:19:55.860Z,99021.96
2019-06-15T02:25:48.323Z,99022.64
2019-06-15T02:28:58.617Z,99014.28
2019-06-15T02:31:30.019Z,99008.25
2019-06-15T02:34:21.781Z,99015.92
2019-06-15T02:39:45.989Z,99005.39
2019-06-15T02:42:36.995Z,98976.77
2019-06-15T02:45:07.097Z,99000.88
2019-06-15T02:47:38.223Z,98995.73
2019-06-15T02:50:08.385Z,98985.77
2019-06-15T02:52:38.772Z,98993.76
2019-06-15T02:55:10.100Z,98999.21
2019-06-15T02:57:40.037Z,98991.67
2019-06-15T03:00:23.253Z,98992.20
2019-06-15T03:02:43.894Z,98996.83
2019-06-15T03:05:14.013Z,98995.20
2019-06-15T03:07:43.825Z,98993.55
2019-06-15T03:10:13.918Z,98992.77
2019-06-15T03:12:43.974Z,98994.85
2019-06-15T03:15:13.981Z,98999.59
2019-06-15T03:17:43.997Z,98997.91
2019-06-15T03:20:14.059Z,99006.30
2019-06-15T03:22:44.037Z,99007.74
2019-06-15T03:25:32.739Z,99017.94
2019-06-15T03:28:03.208Z,99021.33
2019-06-15T03:30:33.694Z,99013.86
2019-06-15T03:33:04.201Z,99027.52
2019-06-15T03:38:25.929Z,99023.25
2019-06-15T03:40:55.846Z,99018.70
2019-06-15T03:43:25.824Z,99022.42
2019-06-15T03:46:15.214Z,99030.94
2019-06-15T03:48:45.652Z,99034.06
2019-06-15T03:51:16.632Z,99055.87
2019-06-15T03:53:46.935Z,99071.22
2019-06-15T03:56:21.541Z,99053.67
2019-06-15T03:58:49.470Z,99057.25
2019-06-15T04:02:00.764Z,99068.50
2019-06-15T04:04:30.859Z,99073.41
2019-06-15T04:07:01.331Z,99069.77
2019-06-15T04:09:32.302Z,99072.83
2019-06-15T04:12:04.095Z,99088.62
2019-06-15T04:14:53.037Z,99102.79
2019-06-15T04:17:22.943Z,99102.64
2019-06-15T04:20:12.769Z,99115.19
2019-06-15T04:22:43.144Z,99118.94
2019-06-15T04:25:13.593Z,99121.38
2019-06-15T04:28:04.847Z,99141.01
2019-06-15T04:30:34.819Z,99141.01
2019-06-15T04:33:05.416Z,99128.95
2019-06-15T04:35:35.676Z,99140.17
2019-06-15T04:38:06.054Z,99166.65
2019-06-15T04:40:36.505Z,99170.34
2019-06-15T04:43:08.737Z,99181.84
2019-06-15T04:45:39.859Z,99180.91
2019-06-15T04:48:12.599Z,99185.92
2019-06-15T04:50:57.057Z,99177.83
2019-06-15T04:53:14.947Z,99183.90
2019-06-15T04:55:46.550Z,99178.17
2019-06-15T04:58:35.528Z,99172.78
2019-06-15T05:01:06.179Z,99180.96
2019-06-15T05:03:36.089Z,99178.80
2019-06-15T05:08:48.346Z,99177.88
2019-06-15T05:11:19.347Z,99163.77
2019-06-15T05:14:08.356Z,99165.63
2019-06-15T05:16:40.313Z,99171.70
2019-06-15T05:19:10.292Z,99162.18
2019-06-15T05:22:01.087Z,99170.25
2019-06-15T05:24:31.216Z,99166.36
2019-06-15T05:27:06.289Z,99177.03
2019-06-15T05:29:34.511Z,99170.75
2019-06-15T05:32:04.709Z,99176.13
2019-06-15T05:34:34.789Z,99179.25
2019-06-15T05:37:05.914Z,99185.80
2019-06-15T05:39:36.238Z,99191.26
2019-06-15T05:42:06.885Z,99195.40
2019-06-15T05:44:49.954Z,99211.48
2019-06-15T05:47:22.093Z,99211.48
2019-06-15T05:49:52.494Z,99215.91
2019-06-15T05:52:24.298Z,99221.41
2019-06-15T05:54:54.504Z,99231.08
2019-06-15T05:57:25.463Z,99237.92
2019-06-15T05:59:56.521Z,99243.67
2019-06-15T06:05:15.754Z,99270.07
2019-06-15T06:07:46.242Z,99273.95
2019-06-15T06:10:16.239Z,99286.14
2019-06-15T06:12:46.680Z,99287.33
2019-06-15T06:15:17.131Z,99286.76
2019-06-15T06:17:48.145Z,99294.73
2019-06-15T06:20:18.169Z,99294.36
2019-06-15T06:22:48.561Z,99290.56
2019-06-15T06:25:18.513Z,99286.70
2019-06-15T06:28:09.335Z,99289.33
2019-06-15T06:30:39.435Z,99285.94
2019-06-15T06:33:09.905Z,99300.19
2019-06-15T06:35:42.025Z,99302.03
2019-06-15T06:38:13.261Z,99300.84
2019-06-15T06:40:44.209Z,99314.22
2019-06-15T06:43:15.690Z,99315.02
2019-06-15T06:45:46.982Z,99312.98
2019-06-15T06:48:36.382Z,99325.02
2019-06-15T06:51:06.433Z,99332.59
2019-06-15T06:53:36.707Z,99345.98
2019-06-15T06:56:06.879Z,99345.20
2019-06-15T06:58:38.565Z,99346.53
2019-06-15T07:01:22.195Z,99347.43
2019-06-15T07:03:42.633Z,99345.64
2019-06-15T07:06:16.154Z,99343.43
2019-06-15T07:09:07.151Z,99357.17
2019-06-15T07:11:38.724Z,99359.05
2019-06-15T07:14:12.474Z,99376.06
2019-06-15T07:17:03.140Z,99385.88
2019-06-15T07:19:33.801Z,99381.91
2019-06-15T07:22:04.938Z,99399.39
2019-06-15T07:24:38.475Z,99403.64
2019-06-15T07:27:09.811Z,99407.03
2019-06-15T07:29:40.691Z,99409.38
2019-06-15T07:32:30.616Z,99422.27
2019-06-15T07:35:01.657Z,99428.67
2019-06-15T07:37:32.302Z,99431.53
2019-06-15T07:40:04.234Z,99435.75
2019-06-15T07:42:34.729Z,99433.95
2019-06-15T07:45:06.600Z,99445.69
2019-06-15T07:47:37.579Z,99435.20
2019-06-15T07:53:18.767Z,99447.23
2019-06-15T07:55:51.268Z,99441.93
2019-06-15T07:58:24.921Z,99453.89
2019-06-15T08:01:00.227Z,99438.19
2019-06-15T08:03:49.727Z,99445.63
2019-06-15T08:06:21.591Z,99428.95
2019-06-15T08:08:52.610Z,99451.16
2019-06-15T08:11:23.594Z,99453.10
2019-06-15T08:13:54.927Z,99447.39
2019-06-15T08:16:25.890Z,99466.07
2019-06-15T08:18:55.897Z,99462.84
2019-06-15T08:21:27.263Z,99482.78
2019-06-15T08:23:58.173Z,99482.78
2019-06-15T08:26:29.123Z,99479.73
2019-06-15T08:29:01.145Z,99488.41
2019-06-15T08:31:34.360Z,99487.13
2019-06-15T08:34:06.391Z,99487.98
2019-06-15T08:36:38.788Z,99498.58
2019-06-15T08:39:10.556Z,99496.75
2019-06-15T08:41:43.328Z,99494.39
2019-06-15T08:44:14.889Z,99497.70
2019-06-15T08:46:47.818Z,99493.25
2019-06-15T08:49:19.747Z,99515.63
2019-06-15T08:51:50.548Z,99520.00
2019-06-15T08:54:41.672Z,99527.89
2019-06-15T08:57:13.345Z,99532.25
2019-06-15T08:59:45.102Z,99516.19
2019-06-15T09:02:17.453Z,99521.45
2019-06-15T09:05:08.154Z,99531.00
2019-06-15T09:07:39.787Z,99520.44
2019-06-15T09:10:11.566Z,99535.72
2019-06-15T09:12:43.676Z,99541.77
2019-06-15T09:15:41.605Z,99540.74
2019-06-15T09:18:13.343Z,99540.69
2019-06-15T09:20:45.627Z,99539.95
2019-06-15T09:23:18.553Z,99539.09
2019-06-15T09:25:53.729Z,99550.89
2019-06-15T09:28:26.086Z,99553.36
2019-06-15T09:30:58.226Z,99556.89
2019-06-15T09:33:30.512Z,99557.05
2019-06-15T09:36:03.841Z,99561.97
2019-06-15T09:38:37.140Z,99554.02
2019-06-15T09:41:09.736Z,99556.50
2019-06-15T09:43:44.745Z,99561.34
2019-06-15T09:46:22.386Z,99571.94
2019-06-15T09:48:56.383Z,99561.47
2019-06-15T09:51:28.186Z,99571.06
2019-06-15T09:54:00.016Z,99575.30
2019-06-15T09:56:32.476Z,99565.23
2019-06-15T09:59:04.861Z,99566.20
2019-06-15T10:02:00.474Z,99566.20
2019-06-15T10:04:32.912Z,99566.55
2019-06-15T10:07:04.930Z,99586.61
2019-06-15T10:09:37.165Z,99596.64
2019-06-15T10:12:09.626Z,99594.77
2019-06-15T10:14:41.567Z,99603.20
2019-06-15T10:17:14.213Z,99594.57
2019-06-15T10:19:46.558Z,99600.70
2019-06-15T10:22:18.978Z,99598.31
2019-06-15T10:24:50.870Z,99598.31
2019-06-15T10:27:24.188Z,99602.77
2019-06-15T10:29:56.588Z,99609.04
2019-06-15T10:32:28.845Z,99614.03
2019-06-15T10:35:01.976Z,99613.40
2019-06-15T10:40:16.825Z,99625.55
2019-06-15T10:43:09.325Z,99613.81
2019-06-15T10:45:41.177Z,99619.41
2019-06-15T10:48:14.382Z,99636.39
2019-06-15T10:50:48.047Z,99642.92
2019-06-15T10:53:19.988Z,99646.88
2019-06-15T10:55:51.907Z,99646.88
2019-06-15T10:58:23.764Z,99647.78
2019-06-15T11:00:56.336Z,99664.11
2019-06-15T11:03:29.581Z,99662.56
2019-06-15T11:06:01.506Z,99653.59
2019-06-15T11:08:33.515Z,99655.00
2019-06-15T11:11:31.335Z,99656.20
2019-06-15T11:14:03.384Z,99659.43
2019-06-15T11:16:35.101Z,99659.94
2019-06-15T11:19:26.311Z,99658.55
2019-06-15T11:21:58.878Z,99659.91
2019-06-15T11:24:32.212Z,99662.28
2019-06-15T11:27:03.132Z,99663.14
2019-06-15T11:29:35.163Z,99660.45
2019-06-15T11:32:07.284Z,99674.22
2019-06-15T11:34:38.961Z,99671.14
2019-06-15T11:37:12.806Z,99678.97
2019-06-15T11:39:44.711Z,99673.66
2019-06-15T11:42:36.002Z,99680.39
2019-06-15T11:45:08.475Z,99680.39
2019-06-15T11:47:39.489Z,99676.30
2019-06-15T11:50:31.789Z,99672.78
2019-06-15T11:53:17.211Z,99672.69
2019-06-15T11:55:39.501Z,99669.20
2019-06-15T11:58:09.013Z,99670.39
2019-06-15T12:01:01.562Z,99669.80
2019-06-15T12:03:34.011Z,99669.48
2019-06-15T12:06:08.430Z,99671.87
2019-06-15T12:09:00.118Z,99670.88
2019-06-15T12:11:32.018Z,99675.39
2019-06-15T12:14:03.599Z,99667.31
2019-06-15T12:16:35.474Z,99670.79
2019-06-15T12:19:08.005Z,99675.24
2019-06-15T12:21:39.952Z,99675.80
2019-06-15T12:24:10.978Z,99679.88
2019-06-15T12:27:00.804Z,99685.73
2019-06-15T12:29:32.723Z,99670.64
2019-06-15T12:32:04.172Z,99679.70
2019-06-15T12:34:36.064Z,99680.07
2019-06-15T12:37:07.093Z,99687.72
2019-06-15T12:39:41.806Z,99685.97
2019-06-15T12:42:10.888Z,99679.75
2019-06-15T12:44:42.264Z,99680.82
2019-06-15T12:47:15.005Z,99673.23
2019-06-15T12:49:46.677Z,99685.31
2019-06-15T12:55:04.035Z,99673.31
2019-06-15T12:57:36.125Z,99685.08
2019-06-15T13:00:10.468Z,99686.52
2019-06-15T13:02:44.863Z,99688.50
2019-06-15T13:05:16.814Z,99690.84
2019-06-15T13:07:48.905Z,99687.42
2019-06-15T13:10:20.775Z,99684.10
2019-06-15T13:12:51.725Z,99689.48
2019-06-15T13:15:26.192Z,99680.92
2019-06-15T13:17:58.349Z,99680.53
2019-06-15T13:20:32.106Z,99687.84
2019-06-15T13:23:04.341Z,99691.06
2019-06-15T13:25:36.728Z,99691.06
2019-06-15T13:28:08.965Z,99686.98
2019-06-15T13:30:41.125Z,99694.02
2019-06-15T13:33:33.339Z,99688.00
2019-06-15T13:36:05.315Z,99688.00
2019-06-15T13:38:37.063Z,99690.47
2019-06-15T13:41:09.453Z,99695.79
2019-06-15T13:43:41.182Z,99689.81
2019-06-15T13:46:13.160Z,99688.14
2019-06-15T13:51:37.484Z,99690.33
2019-06-15T13:54:09.382Z,99682.55
2019-06-15T13:56:42.446Z,99689.28
2019-06-15T13:59:14.332Z,99692.59
2019-06-15T14:01:46.336Z,99692.64
2019-06-15T14:04:37.204Z,99697.45
2019-06-15T14:07:20.534Z,99706.08
2019-06-15T14:10:15.304Z,99706.08
2019-06-15T14:12:48.867Z,99710.33
2019-06-15T14:16:21.434Z,99706.69
2019-06-15T14:18:53.444Z,99705.45
2019-06-15T14:21:25.329Z,99701.19
2019-06-15T14:23:57.441Z,99704.69
2019-06-15T14:26:29.232Z,99694.22
2019-06-15T14:29:03.493Z,99698.87
2019-06-15T14:31:54.591Z,99691.55
2019-06-15T14:34:26.617Z,99700.00
2019-06-15T14:36:58.434Z,99689.78
2019-06-15T14:39:30.476Z,99677.98
2019-06-15T14:42:02.780Z,99690.46
2019-06-15T14:44:35.310Z,99698.56
2019-06-15T14:47:08.058Z,99703.18
2019-06-15T14:49:40.565Z,99700.95
2019-06-15T14:52:12.782Z,99705.64
2019-06-15T14:55:03.752Z,99706.81
2019-06-15T14:57:36.211Z,99698.80
2019-06-15T15:03:11.835Z,99704.50
2019-06-15T15:05:43.797Z,99707.18
2019-06-15T15:08:15.526Z,99703.17
2019-06-15T15:10:52.673Z,99701.06
2019-06-15T15:13:43.557Z,99694.03
2019-06-15T15:16:17.626Z,99691.81
2019-06-15T15:18:49.102Z,99684.88
2019-06-15T15:21:20.924Z,99692.73
2019-06-15T15:26:37.248Z,99692.73
2019-06-15T15:29:09.653Z,99694.31
2019-06-15T15:31:53.547Z,99697.76
2019-06-15T15:34:17.387Z,99693.16
2019-06-15T15:36:56.794Z,99696.34
2019-06-15T15:39:28.868Z,99698.95
2019-06-15T15:45:07.186Z,99695.48
2019-06-15T15:47:40.957Z,99690.09
2019-06-15T15:56:20.090Z,99680.18
2019-06-15T15:58:51.984Z,99680.59
2019-06-15T16:01:26.258Z,99685.84
2019-06-15T16:03:56.486Z,99690.92
2019-06-15T16:06:28.217Z,99683.54
2019-06-15T16:08:59.945Z,99684.49
2019-06-15T16:11:31.950Z,99682.92
2019-06-15T16:14:07.010Z,99684.84
2019-06-15T16:16:39.217Z,99683.72
2019-06-15T16:19:11.216Z,99675.41
2019-06-15T16:21:43.432Z,99676.28
2019-06-15T16:24:16.664Z,99687.89
2019-06-15T16:26:48.573Z,99690.63
2019-06-15T16:29:20.723Z,99688.41
2019-06-15T16:31:57.562Z,99685.80
2019-06-15T16:34:29.485Z,99684.53
2019-06-15T16:37:19.947Z,99678.02
2019-06-15T16:39:51.392Z,99685.67
2019-06-15T16:42:23.894Z,99691.16
2019-06-15T16:44:56.205Z,99694.95
2019-06-15T16:47:28.107Z,99691.00
2019-06-15T16:49:59.428Z,99696.16
2019-06-15T16:55:21.572Z,99693.34
2019-06-15T16:57:53.687Z,99686.87
2019-06-15T17:00:27.615Z,99688.11
2019-06-15T17:02:59.062Z,99691.77
2019-06-15T17:05:30.028Z,99687.63
2019-06-15T17:08:02.987Z,99688.61
2019-06-15T17:10:57.621Z,99679.64
2019-06-15T17:13:32.589Z,99679.21
2019-06-15T17:16:06.102Z,99671.30
2019-06-15T17:18:37.874Z,99673.61
2019-06-15T17:21:09.640Z,99672.47
2019-06-15T17:23:41.450Z,99676.86
2019-06-15T17:26:12.528Z,99680.69
2019-06-15T17:28:46.012Z,99678.83
2019-06-15T17:31:18.757Z,99691.05
2019-06-15T17:33:51.541Z,99693.41
2019-06-15T17:36:27.446Z,99698.91
2019-06-15T17:38:58.638Z,99684.14
2019-06-15T17:41:30.303Z,99697.37
2019-06-15T17:46:56.591Z,99690.42
2019-06-15T17:49:27.835Z,99695.84
2019-06-15T17:52:00.074Z,99696.59
2019-06-15T17:54:31.713Z,99695.00
2019-06-15T17:57:04.094Z,99691.67
2019-06-15T18:02:27.513Z,99692.03
2019-06-15T18:05:11.556Z,99689.22
2019-06-15T18:07:36.048Z,99693.59
2019-06-15T18:10:08.080Z,99687.56
2019-06-15T18:12:39.155Z,99684.38
2019-06-15T18:18:03.063Z,99689.66
2019-06-15T18:20:53.806Z,99684.93
2019-06-15T18:23:25.667Z,99681.95
2019-06-15T18:25:56.519Z,99681.38
2019-06-15T18:28:28.327Z,99678.91
2019-06-15T18:30:59.317Z,99669.58
2019-06-15T18:33:31.144Z,99670.05
2019-06-15T18:36:02.560Z,99676.70
2019-06-15T18:38:33.520Z,99679.56
2019-06-15T18:41:07.076Z,99682.80
2019-06-15T18:43:38.025Z,99681.79
2019-06-15T18:46:09.695Z,99685.34
2019-06-15T18:48:40.811Z,99674.27
2019-06-15T18:51:13.092Z,99688.35
2019-06-15T18:53:46.532Z,99689.31
2019-06-15T18:56:36.935Z,99688.21
2019-06-15T18:59:26.529Z,99688.61
2019-06-15T19:01:57.525Z,99693.41
2019-06-15T19:04:31.094Z,99691.33
2019-06-15T19:07:02.849Z,99692.42
2019-06-15T19:09:52.850Z,99682.36
2019-06-15T19:12:26.227Z,99698.25
2019-06-15T19:14:56.311Z,99702.95
2019-06-15T19:17:27.784Z,99699.87
2019-06-15T19:19:58.817Z,99701.16
2019-06-15T19:22:30.446Z,99698.61
2019-06-15T19:25:26.898Z,99704.67
2019-06-15T19:27:36.584Z,99705.58
2019-06-15T19:30:07.398Z,99698.30
2019-06-15T19:32:57.329Z,99704.15
2019-06-15T19:35:29.171Z,99708.92
2019-06-15T19:38:00.849Z,99715.06
2019-06-15T19:40:32.717Z,99722.25
2019-06-15T19:43:06.312Z,99716.28
2019-06-15T19:45:37.958Z,99710.84
2019-06-15T19:48:08.779Z,99716.91
2019-06-15T19:53:31.159Z,99717.30
2019-06-15T20:01:36.915Z,99724.05
2019-06-15T20:04:10.154Z,99734.48
2019-06-15T20:06:41.957Z,99736.45
2019-06-15T20:12:02.826Z,99754.54
2019-06-15T20:14:33.574Z,99753.12
2019-06-15T20:17:07.218Z,99757.25
2019-06-15T20:19:49.034Z,99767.88
2019-06-15T20:22:20.718Z,99767.88
2019-06-15T20:24:51.477Z,99763.30
2019-06-15T20:30:12.974Z,99774.97
2019-06-15T20:32:46.125Z,99785.84
2019-06-15T20:35:20.585Z,99800.59
2019-06-15T20:37:47.944Z,99803.41
2019-06-15T20:40:17.895Z,99801.60
2019-06-15T20:42:50.137Z,99799.66
2019-06-15T20:45:21.025Z,99797.13
2019-06-15T20:47:52.389Z,99805.64
2019-06-15T20:50:28.160Z,99811.02
2019-06-15T20:52:56.564Z,99804.03
2019-06-15T20:55:26.743Z,99815.61
2019-06-15T20:57:58.373Z,99810.59
2019-06-15T21:00:47.874Z,99809.62
2019-06-15T21:03:19.690Z,99812.69
2019-06-15T21:05:50.504Z,99811.23
2019-06-15T21:08:21.425Z,99809.73
2019-06-15T21:10:52.264Z,99798.17
2019-06-15T21:13:23.239Z,99798.97
2019-06-15T21:15:57.726Z,99791.32
2019-06-15T21:18:28.810Z,99798.30
2019-06-15T21:20:58.848Z,99805.19
2019-06-15T21:23:29.777Z,99812.28
2019-06-15T21:26:00.981Z,99809.48
2019-06-15T21:28:32.738Z,99812.56
2019-06-15T21:31:02.705Z,99817.67
2019-06-15T21:33:51.810Z,99817.20
2019-06-15T21:36:26.096Z,99829.84
2019-06-15T21:38:56.416Z,99837.16
2019-06-15T21:44:16.784Z,99858.44
2019-06-15T21:47:08.448Z,99856.40
2019-06-15T21:49:39.666Z,99860.39
2019-06-15T21:52:09.991Z,99863.48
2019-06-15T21:54:42.754Z,99873.72
2019-06-15T21:57:15.976Z,99870.97
2019-06-15T21:59:47.343Z,99870.25
2019-06-15T22:02:18.326Z,99873.75
2019-06-15T22:04:49.472Z,99883.52
2019-06-15T22:07:41.300Z,99883.72
2019-06-15T22:12:58.670Z,99880.23
2019-06-15T22:15:49.866Z,99882.57
2019-06-15T22:18:22.841Z,99882.57
2019-06-15T22:20:54.521Z,99873.05
2019-06-15T22:23:26.884Z,99874.22
2019-06-15T22:25:59.775Z,99871.80
2019-06-15T22:28:31.225Z,99877.45
2019-06-15T22:31:02.098Z,99881.48
2019-06-15T22:33:36.068Z,99881.02
2019-06-15T22:36:20.695Z,99893.16
2019-06-15T22:38:41.513Z,99898.03
2019-06-15T22:41:13.253Z,99892.95
2019-06-15T22:43:46.172Z,99898.31
2019-06-15T22:46:16.860Z,99894.47
2019-06-15T22:48:47.746Z,99894.47
2019-06-15T22:51:20.049Z,99895.13
2019-06-15T22:53:51.466Z,99893.28
2019-06-15T22:56:41.802Z,99911.09
2019-06-15T22:59:12.647Z,99903.25
2019-06-15T23:01:46.048Z,99895.73
2019-06-15T23:04:17.689Z,99909.17
2019-06-15T23:06:50.301Z,99903.31
2019-06-15T23:09:40.213Z,99907.79
2019-06-15T23:12:12.209Z,99907.78
2019-06-15T23:14:46.608Z,99919.17
2019-06-15T23:20:08.938Z,99922.00
2019-06-15T23:22:39.833Z,99914.56
2019-06-15T23:25:10.678Z,99923.84
2019-06-15T23:27:42.099Z,99928.94
2019-06-15T23:30:32.021Z,99924.26
2019-06-15T23:38:41.464Z,99931.30
2019-06-15T23:41:11.787Z,99929.88
2019-06-15T23:43:42.641Z,99934.00
2019-06-15T23:46:12.564Z,99938.77
2019-06-15T23:48:43.036Z,99938.80
2019-06-15T23:51:13.795Z,99941.03
2019-06-15T23:53:46.086Z,99941.64
2019-06-15T23:56:28.711Z,99943.05
